Página principal
METAR-TAF:

METAR-TAF

Aeroportos :

Riberalta, Bolívia

latitude: 11-00S, longitude: 066-07W, altura: 141 m

Observação actual do tempo

O boletim foi feito há 1 hora e 1 minutos, às 14:00 UTC
Vento 6 kt de este
Temperatura 25°C
Humidade 94%
Pressão 1016 hPa
Visibilidade: 6000 m
Nuvens fragmentadasa uma altura de 800 ft
Poucas nuvensa uma altura de 2000 ft, Cumulonimbus.
Nuvens fragmentadasa uma altura de 7000 ft
aguaceiros nas vizinhanças,

METAR: SLRI 261400Z 10006KT 6000 VCSH BKN008 FEW020CB BKN070 25/24 Q1016

Hora: 11:01 (15:01 UTC)


TAF: em falta

Observações e previsões do tempo de mais de 4000 aeroportos (mensagens METAR e TAF).

As estações disponíveis são os pontos amarelos e vermelhos sobre o mapa.

Mova o rato sobre o mapa para ver o nome da estação.

Depois clique no ponto para visualizar as observações e previsões meteorológicas.

Para alterar o mapa : clique nos botões verdes com uma cruz preta para aumentar o zoom; no botão verde com uma pitada de zoom; ou nas setas verdes para mapas adjacentes.


METAR-TAF: